createdAt,value
2023-04-20T00:00:00.611Z,102186.06
2023-04-20T00:02:27.694Z,102182.34
2023-04-20T00:05:00.615Z,102169.88
2023-04-20T00:07:27.628Z,102170.56
2023-04-20T00:10:00.571Z,102162.56
2023-04-20T00:12:33.603Z,102146.81
2023-04-20T00:15:06.814Z,102153.63
2023-04-20T00:17:33.827Z,102142.16
2023-04-20T00:20:07.566Z,102137.69
2023-04-20T00:22:34.311Z,102138.44
2023-04-20T00:25:07.601Z,102132.22
2023-04-20T00:27:34.430Z,102140.81
2023-04-20T00:30:07.588Z,102126.03
2023-04-20T00:32:40.680Z,102139.13
2023-04-20T00:35:14.634Z,102134.75
2023-04-20T00:37:41.800Z,102119.19
2023-04-20T00:40:15.583Z,102121.88
2023-04-20T00:42:42.635Z,102109.81
2023-04-20T00:45:16.603Z,102109.03
2023-04-20T00:47:49.791Z,102107.28
2023-04-20T00:50:17.373Z,102098.50
2023-04-20T00:52:51.562Z,102095.97
2023-04-20T00:55:19.852Z,102092.56
2023-04-20T00:57:59.742Z,102093.44
2023-04-20T01:00:33.158Z,102081.03
2023-04-20T01:03:06.739Z,102076.44
2023-04-20T01:05:34.299Z,102059.72
2023-04-20T01:08:07.634Z,102077.28
2023-04-20T01:10:34.551Z,102071.66
2023-04-20T01:13:01.321Z,102056.53
2023-04-20T01:15:34.606Z,102071.97
2023-04-20T01:18:01.510Z,102060.19
2023-04-20T01:20:34.676Z,102061.53
2023-04-20T01:23:01.682Z,102056.84
2023-04-20T01:25:34.558Z,102044.16
2023-04-20T01:28:02.312Z,102044.84
2023-04-20T01:30:36.631Z,102043.69
2023-04-20T01:33:03.492Z,102025.97
2023-04-20T01:35:30.553Z,102034.41
2023-04-20T01:38:03.741Z,102013.25
2023-04-20T01:40:36.719Z,102019.25
2023-04-20T01:43:03.465Z,102027.59
2023-04-20T01:45:36.650Z,102017.09
2023-04-20T01:48:03.535Z,102025.69
2023-04-20T01:50:36.650Z,102009.72
2023-04-20T01:53:03.635Z,102008.66
2023-04-20T01:55:36.678Z,102006.53
2023-04-20T01:58:10.076Z,102010.78
2023-04-20T02:00:43.672Z,102001.84
2023-04-20T02:03:11.350Z,101989.38
2023-04-20T02:05:44.714Z,101993.47
2023-04-20T02:08:11.796Z,101987.31
2023-04-20T02:10:44.619Z,101983.69
2023-04-20T02:13:18.626Z,101984.97
2023-04-20T02:15:45.434Z,101980.31
2023-04-20T02:18:18.654Z,101981.75
2023-04-20T02:20:46.381Z,101978.09
2023-04-20T02:23:19.620Z,101978.44
2023-04-20T02:25:52.617Z,101979.88
2023-04-20T02:28:19.373Z,101967.97
2023-04-20T02:30:52.759Z,101976.41
2023-04-20T02:33:21.357Z,101965.09
2023-04-20T02:35:54.597Z,101967.53
2023-04-20T02:38:21.588Z,101973.41
2023-04-20T02:40:54.592Z,101970.59
2023-04-20T02:43:21.348Z,101961.91
2023-04-20T02:45:54.631Z,101959.06
2023-04-20T02:48:21.354Z,101956.34
2023-04-20T02:50:48.190Z,101950.06
2023-04-20T02:53:21.648Z,101960.69
2023-04-20T02:55:48.422Z,101944.84
2023-04-20T02:58:21.760Z,101944.84
2023-04-20T03:00:54.805Z,101938.69
2023-04-20T03:03:28.822Z,101936.91
2023-04-20T03:05:56.863Z,101935.97
2023-04-20T03:08:30.614Z,101937.84
2023-04-20T03:10:57.304Z,101942.91
2023-04-20T03:13:30.667Z,101941.28
2023-04-20T03:15:57.415Z,101942.03
2023-04-20T03:18:30.642Z,101929.03
2023-04-20T03:20:57.470Z,101933.47
2023-04-20T03:23:30.670Z,101944.69
2023-04-20T03:25:57.817Z,101930.53
2023-04-20T03:28:30.622Z,101925.38
2023-04-20T03:31:03.689Z,101927.94
2023-04-20T03:33:30.594Z,101914.81
2023-04-20T03:36:03.735Z,101918.16
2023-04-20T03:38:37.694Z,101908.81
2023-04-20T03:41:11.876Z,101904.53
2023-04-20T03:43:44.628Z,101903.75
2023-04-20T03:46:17.674Z,101902.00
2023-04-20T03:48:50.677Z,101904.91
2023-04-20T03:51:17.575Z,101907.47
2023-04-20T03:53:50.665Z,101897.22
2023-04-20T03:56:17.516Z,101893.66
2023-04-20T03:59:04.665Z,101891.94
2023-04-20T04:01:32.469Z,101895.63
2023-04-20T04:04:05.933Z,101893.84
2023-04-20T04:06:33.257Z,101912.44
2023-04-20T04:09:06.714Z,101878.59
2023-04-20T04:11:33.525Z,101902.94
2023-04-20T04:14:06.719Z,101907.38
2023-04-20T04:16:39.661Z,101906.66
2023-04-20T04:19:12.698Z,101901.38
2023-04-20T04:21:39.526Z,101901.66
2023-04-20T04:24:13.671Z,101890.91
2023-04-20T04:26:46.841Z,101897.22
2023-04-20T04:29:20.722Z,101885.66
2023-04-20T04:31:54.060Z,101892.84
2023-04-20T04:34:27.718Z,101877.47
2023-04-20T04:37:00.691Z,101886.84
2023-04-20T04:39:28.661Z,101883.16
2023-04-20T04:42:04.826Z,101880.75
2023-04-20T04:44:31.997Z,101880.75
2023-04-20T04:47:20.816Z,101896.50
2023-04-20T04:49:54.970Z,101901.81
2023-04-20T04:52:29.792Z,101886.19
2023-04-20T04:54:56.529Z,101885.91
2023-04-20T04:57:29.696Z,101893.94
2023-04-20T05:00:07.205Z,101886.84
2023-04-20T05:02:40.960Z,101898.38
2023-04-20T05:05:15.836Z,101890.66
2023-04-20T05:07:48.721Z,101885.47
2023-04-20T05:10:15.732Z,101876.53
2023-04-20T05:12:48.732Z,101876.38
2023-04-20T05:15:15.614Z,101880.03
2023-04-20T05:17:42.380Z,101878.91
2023-04-20T05:20:17.767Z,101876.16
2023-04-20T05:22:44.822Z,101867.44
2023-04-20T05:25:18.679Z,101874.31
2023-04-20T05:27:51.709Z,101875.94
2023-04-20T05:30:21.703Z,101889.19
2023-04-20T05:32:51.903Z,101883.88
2023-04-20T05:35:26.783Z,101893.56
2023-04-20T05:37:53.449Z,101880.31
2023-04-20T05:40:26.716Z,101883.59
2023-04-20T05:42:53.784Z,101885.28
2023-04-20T05:45:26.826Z,101893.16
2023-04-20T05:47:57.575Z,101881.81
2023-04-20T05:50:31.756Z,101885.22
2023-04-20T05:52:58.805Z,101892.19
2023-04-20T05:55:32.764Z,101891.22
2023-04-20T05:58:06.258Z,101900.91
2023-04-20T06:00:45.814Z,101897.31
2023-04-20T06:03:13.293Z,101892.09
2023-04-20T06:05:46.766Z,101881.56
2023-04-20T06:08:13.638Z,101893.88
2023-04-20T06:10:46.840Z,101897.41
2023-04-20T06:13:13.656Z,101889.38
2023-04-20T06:15:40.564Z,101890.16
2023-04-20T06:18:13.916Z,101881.31
2023-04-20T06:20:41.040Z,101898.97
2023-04-20T06:23:13.761Z,101886.16
2023-04-20T06:25:40.860Z,101893.31
2023-04-20T06:28:07.977Z,101889.03
2023-04-20T06:30:41.869Z,101879.28
2023-04-20T06:33:14.760Z,101880.00
2023-04-20T06:35:41.800Z,101879.72
2023-04-20T06:38:15.804Z,101878.69
2023-04-20T06:40:49.805Z,101880.09
2023-04-20T06:43:22.758Z,101881.44
2023-04-20T06:45:55.919Z,101887.06
2023-04-20T06:48:30.909Z,101884.19
2023-04-20T06:51:04.807Z,101891.09
2023-04-20T06:53:31.587Z,101879.50
2023-04-20T06:56:04.804Z,101883.94
2023-04-20T06:58:37.848Z,101872.94
2023-04-20T07:01:17.885Z,101882.25
2023-04-20T07:03:53.962Z,101883.25
2023-04-20T07:06:27.761Z,101880.75
2023-04-20T07:08:54.525Z,101889.53
2023-04-20T07:11:21.255Z,101877.38
2023-04-20T07:13:54.755Z,101879.59
2023-04-20T07:16:21.549Z,101878.25
2023-04-20T07:18:54.773Z,101886.59
2023-04-20T07:21:27.770Z,101879.41
2023-04-20T07:24:02.825Z,101884.41
2023-04-20T07:26:29.539Z,101888.31
2023-04-20T07:29:02.850Z,101885.06
2023-04-20T07:31:29.782Z,101881.28
2023-04-20T07:34:02.750Z,101886.06
2023-04-20T07:36:30.498Z,101877.53
2023-04-20T07:39:03.810Z,101870.19
2023-04-20T07:41:30.478Z,101858.22
2023-04-20T07:44:03.864Z,101852.09
2023-04-20T07:46:37.789Z,101864.19
2023-04-20T07:49:10.882Z,101869.69
2023-04-20T07:51:37.647Z,101871.44
2023-04-20T07:54:11.928Z,101878.22
2023-04-20T07:56:44.812Z,101869.31
2023-04-20T07:59:18.134Z,101873.44
2023-04-20T08:01:58.911Z,101889.97
2023-04-20T08:04:26.062Z,101879.22
2023-04-20T08:06:59.757Z,101874.31
2023-04-20T08:09:26.700Z,101881.41
2023-04-20T08:11:59.784Z,101867.59
2023-04-20T08:14:26.629Z,101882.97
2023-04-20T08:16:59.826Z,101877.78
2023-04-20T08:19:33.779Z,101873.66
2023-04-20T08:22:06.913Z,101856.53
2023-04-20T08:24:33.617Z,101851.81
2023-04-20T08:27:00.543Z,101846.97
2023-04-20T08:29:33.741Z,101853.16
2023-04-20T08:32:00.823Z,101846.34
2023-04-20T08:34:34.348Z,101853.84
2023-04-20T08:37:01.866Z,101843.88
2023-04-20T08:39:34.911Z,101844.25
2023-04-20T08:42:02.495Z,101847.50
2023-04-20T08:44:35.761Z,101827.81
2023-04-20T08:47:03.459Z,101827.44
2023-04-20T08:49:37.832Z,101838.94
2023-04-20T08:52:04.580Z,101837.63
2023-04-20T08:54:42.809Z,101839.31
2023-04-20T08:57:16.549Z,101844.41
2023-04-20T08:59:56.880Z,101842.84
2023-04-20T09:02:24.020Z,101837.00
2023-04-20T09:05:13.926Z,101849.63
2023-04-20T09:07:47.831Z,101855.47
2023-04-20T09:10:20.887Z,101850.88
2023-04-20T09:12:47.598Z,101845.28
2023-04-20T09:15:34.851Z,101850.84
2023-04-20T09:18:19.821Z,101852.47
2023-04-20T09:20:52.803Z,101848.75
2023-04-20T09:23:23.897Z,101845.06
2023-04-20T09:25:59.870Z,101843.44
2023-04-20T09:28:36.405Z,101858.19
2023-04-20T09:31:09.825Z,101852.81
2023-04-20T09:33:44.948Z,101833.16
2023-04-20T09:36:12.074Z,101822.41
2023-04-20T09:38:39.226Z,101825.59
2023-04-20T09:41:13.866Z,101831.19
2023-04-20T09:43:48.911Z,101828.22
2023-04-20T09:46:23.033Z,101824.13
2023-04-20T09:48:56.875Z,101829.97
2023-04-20T09:51:28.024Z,101839.31
2023-04-20T09:54:02.896Z,101831.47
2023-04-20T09:56:30.898Z,101824.34
2023-04-20T09:59:12.849Z,101835.66
2023-04-20T10:01:39.659Z,101815.28
2023-04-20T10:04:21.114Z,101817.31
2023-04-20T10:07:09.868Z,101812.91
2023-04-20T10:09:38.077Z,101810.50
2023-04-20T10:12:16.851Z,101820.56
2023-04-20T10:14:51.824Z,101809.91
2023-04-20T10:17:30.185Z,101817.94
2023-04-20T10:20:03.825Z,101823.41
2023-04-20T10:22:35.584Z,101826.81
2023-04-20T10:25:20.865Z,101818.25
2023-04-20T10:28:01.834Z,101819.25
2023-04-20T10:30:37.865Z,101816.44
2023-04-20T10:33:13.965Z,101810.31
2023-04-20T10:35:52.802Z,101816.38
2023-04-20T10:38:38.820Z,101795.81
2023-04-20T10:41:10.525Z,101802.50
2023-04-20T10:43:49.922Z,101800.72
2023-04-20T10:46:24.479Z,101795.00
2023-04-20T10:49:01.925Z,101801.69
2023-04-20T10:51:28.925Z,101803.16
2023-04-20T10:54:12.907Z,101807.94
2023-04-20T10:56:48.223Z,101802.38
2023-04-20T10:59:25.840Z,101800.78
2023-04-20T11:01:52.728Z,101790.91
2023-04-20T11:04:37.952Z,101794.31
2023-04-20T11:07:07.463Z,101796.13
2023-04-20T11:09:40.920Z,101793.63
2023-04-20T11:12:08.645Z,101792.50
2023-04-20T11:14:44.881Z,101787.31
2023-04-20T11:17:18.058Z,101778.00
2023-04-20T11:19:52.185Z,101799.56
2023-04-20T11:22:30.223Z,101781.78
2023-04-20T11:25:13.892Z,101790.41
2023-04-20T11:27:43.376Z,101789.06
2023-04-20T11:30:18.641Z,101783.56
2023-04-20T11:33:01.082Z,101774.66
2023-04-20T11:35:41.933Z,101767.34
2023-04-20T11:38:15.960Z,101779.63
2023-04-20T11:40:42.778Z,101774.19
2023-04-20T11:43:15.893Z,101770.50
2023-04-20T11:45:42.777Z,101763.81
2023-04-20T11:48:15.961Z,101764.25
2023-04-20T11:50:43.481Z,101770.50
2023-04-20T11:53:22.026Z,101774.03
2023-04-20T11:55:49.517Z,101774.78
2023-04-20T11:58:16.358Z,101759.78
2023-04-20T12:00:50.010Z,101773.38
2023-04-20T12:03:23.069Z,101773.50
2023-04-20T12:05:56.916Z,101765.38
2023-04-20T12:08:24.975Z,101762.75
2023-04-20T12:10:58.808Z,101781.47
2023-04-20T12:13:25.877Z,101767.19
2023-04-20T12:15:58.986Z,101776.97
2023-04-20T12:18:25.957Z,101773.09
2023-04-20T12:20:58.902Z,101771.97
2023-04-20T12:23:25.874Z,101769.53
2023-04-20T12:25:58.881Z,101770.97
2023-04-20T12:28:31.877Z,101765.94
2023-04-20T12:30:58.987Z,101764.53
2023-04-20T12:33:31.978Z,101765.63
2023-04-20T12:36:04.901Z,101764.88
2023-04-20T12:38:38.046Z,101763.34
2023-04-20T12:41:05.089Z,101762.44
2023-04-20T12:43:38.003Z,101773.81
2023-04-20T12:46:11.973Z,101768.00
2023-04-20T12:48:44.997Z,101764.25
2023-04-20T12:51:12.724Z,101767.13
2023-04-20T12:53:46.020Z,101765.50
2023-04-20T12:56:12.878Z,101761.19
2023-04-20T12:58:59.966Z,101768.81
2023-04-20T13:01:27.167Z,101765.09
2023-04-20T13:03:54.424Z,101761.25
2023-04-20T13:06:27.983Z,101757.94
2023-04-20T13:08:54.822Z,101760.88
2023-04-20T13:11:29.047Z,101762.00
2023-04-20T13:13:58.168Z,101751.22
2023-04-20T13:16:32.114Z,101742.28
2023-04-20T13:18:58.997Z,101743.00
2023-04-20T13:21:33.037Z,101743.56
2023-04-20T13:24:00.004Z,101738.38
2023-04-20T13:26:32.955Z,101733.06
2023-04-20T13:28:59.736Z,101728.16
2023-04-20T13:31:33.112Z,101722.56
2023-04-20T13:34:00.127Z,101727.97
2023-04-20T13:36:34.955Z,101728.31
2023-04-20T13:39:08.948Z,101714.25
2023-04-20T13:41:35.994Z,101732.56
2023-04-20T13:44:09.973Z,101727.81
2023-04-20T13:46:43.005Z,101713.41
2023-04-20T13:49:12.715Z,101716.91
2023-04-20T13:51:47.971Z,101717.84
2023-04-20T13:54:14.817Z,101716.81
2023-04-20T13:56:48.001Z,101724.00
2023-04-20T13:59:21.987Z,101721.00
2023-04-20T14:01:55.551Z,101712.56
2023-04-20T14:04:29.079Z,101715.06
2023-04-20T14:06:55.978Z,101690.69
2023-04-20T14:09:29.072Z,101691.94
2023-04-20T14:12:04.004Z,101703.81
2023-04-20T14:14:37.091Z,101702.78
2023-04-20T14:17:04.052Z,101689.72
2023-04-20T14:19:38.192Z,101698.63
2023-04-20T14:22:12.059Z,101690.03
2023-04-20T14:24:38.873Z,101686.56
2023-04-20T14:27:11.985Z,101683.03
2023-04-20T14:29:38.810Z,101688.72
2023-04-20T14:32:12.006Z,101681.56
2023-04-20T14:34:38.805Z,101681.22
2023-04-20T14:37:12.077Z,101686.56
2023-04-20T14:39:38.908Z,101693.06
2023-04-20T14:42:12.991Z,101675.69
2023-04-20T14:44:46.254Z,101684.66
2023-04-20T14:47:20.129Z,101677.06
2023-04-20T14:49:47.801Z,101677.72
2023-04-20T14:52:21.038Z,101681.31
2023-04-20T14:54:47.908Z,101682.69
2023-04-20T14:57:21.007Z,101684.34
2023-04-20T15:00:00.976Z,101693.47
2023-04-20T15:02:28.014Z,101681.69
2023-04-20T15:05:01.161Z,101667.63
2023-04-20T15:07:28.762Z,101666.00
2023-04-20T15:10:01.991Z,101673.19
2023-04-20T15:12:28.838Z,101667.94
2023-04-20T15:15:02.088Z,101669.41
2023-04-20T15:17:28.929Z,101671.34
2023-04-20T15:20:02.060Z,101662.53
2023-04-20T15:22:35.337Z,101667.34
2023-04-20T15:25:09.145Z,101667.09
2023-04-20T15:27:39.268Z,101666.03
2023-04-20T15:30:07.011Z,101671.09
2023-04-20T15:32:41.037Z,101640.84
2023-04-20T15:35:08.036Z,101659.16
2023-04-20T15:37:41.073Z,101654.50
2023-04-20T15:40:08.621Z,101654.97
2023-04-20T15:42:42.028Z,101661.19
2023-04-20T15:45:09.280Z,101655.75
2023-04-20T15:47:43.104Z,101660.44
2023-04-20T15:50:10.361Z,101657.47
2023-04-20T21:06:20.203Z,101653.84
2023-04-20T21:08:53.247Z,101661.53
2023-04-20T21:11:20.203Z,101655.28
2023-04-20T21:13:54.206Z,101644.72
2023-04-20T21:16:21.162Z,101646.44
2023-04-20T21:18:54.543Z,101648.13
2023-04-20T21:21:21.483Z,101641.91
2023-04-20T21:23:56.276Z,101631.44
2023-04-20T21:26:29.212Z,101640.44
2023-04-20T21:28:56.351Z,101642.72
2023-04-20T21:31:30.638Z,101629.63
2023-04-20T21:33:58.232Z,101632.19
2023-04-20T21:36:32.348Z,101640.94
2023-04-20T21:38:59.342Z,101651.47
2023-04-20T21:41:36.212Z,101644.16
2023-04-20T21:44:03.399Z,101645.81
2023-04-20T21:46:37.479Z,101636.97
2023-04-20T21:49:04.440Z,101636.19
2023-04-20T21:51:39.232Z,101639.63
2023-04-20T21:54:06.437Z,101646.72
2023-04-20T21:56:39.418Z,101632.09
2023-04-20T21:59:13.223Z,101631.38
2023-04-20T22:01:40.503Z,101645.38
2023-04-20T22:04:14.460Z,101648.66
2023-04-20T22:06:48.257Z,101623.84
2023-04-20T22:09:21.297Z,101635.72
2023-04-20T22:11:50.217Z,101616.88
2023-04-20T22:14:24.244Z,101604.22
2023-04-20T22:16:52.576Z,101623.16
2023-04-20T22:19:26.221Z,101612.19
2023-04-20T22:21:53.369Z,101613.97
2023-04-20T22:24:27.293Z,101623.38
2023-04-20T22:27:01.232Z,101604.97
2023-04-20T22:29:28.694Z,101597.19
2023-04-20T22:32:02.269Z,101611.66
2023-04-20T22:34:35.285Z,101592.28
2023-04-20T22:37:02.308Z,101574.91
2023-04-20T22:39:35.301Z,101590.06
2023-04-20T22:42:02.542Z,101586.34
2023-04-20T22:44:44.028Z,101556.88
2023-04-20T22:47:17.313Z,101557.41
2023-04-20T22:49:44.288Z,101569.28
2023-04-20T22:52:17.395Z,101572.81
2023-04-20T22:54:48.466Z,101556.97
2023-04-20T22:57:22.213Z,101561.41
2023-04-20T22:59:58.247Z,101559.63
2023-04-20T23:02:31.461Z,101538.28
2023-04-20T23:04:58.618Z,101541.75
2023-04-20T23:07:39.347Z,101542.81
2023-04-20T23:10:14.334Z,101525.09
2023-04-20T23:12:41.249Z,101522.22
2023-04-20T23:15:16.440Z,101518.63
2023-04-20T23:17:43.262Z,101507.97
2023-04-20T23:20:20.332Z,101504.66
2023-04-20T23:22:47.381Z,101491.38
2023-04-20T23:25:21.343Z,101489.69
2023-04-20T23:27:48.472Z,101498.78
2023-04-20T23:30:22.357Z,101497.00
2023-04-20T23:32:56.678Z,101499.25
2023-04-20T23:35:30.270Z,101489.38
2023-04-20T23:38:05.518Z,101486.56
2023-04-20T23:40:39.205Z,101464.25
2023-04-20T23:43:12.404Z,101467.00
2023-04-20T23:45:39.282Z,101462.13
2023-04-20T23:48:13.297Z,101462.78
2023-04-20T23:50:40.458Z,101459.22
2023-04-20T23:53:14.463Z,101445.16
2023-04-20T23:55:41.591Z,101435.47
2023-04-20T23:58:15.298Z,101440.28
